Time;durP1;ratioP1;P1;durP2;ratioP2;P2;SDS_P1;SDS_P2;PMS_P1;PMS_P2;Temp;Humidity;BMP_temperature;BMP_pressure;BME280_temperature;BME280_humidity;BME280_pressure;Samples;Min_cycle;Max_cycle;Signal;HPM_P1;HPM_P2
2023/04/16 00:00:39;;;;;;;21.43;16.23;;;8.50;99.90;;;;;;5051806;28;20924;-70
2023/04/16 00:03:05;;;;;;;26.87;18.60;;;8.50;99.90;;;;;;5058171;28;20199;-73
2023/04/16 00:05:31;;;;;;;25.57;17.93;;;8.50;99.90;;;;;;5056211;28;20184;-74
2023/04/16 00:07:56;;;;;;;21.47;16.73;;;8.50;99.90;;;;;;5062026;28;20180;-73
2023/04/16 00:10:22;;;;;;;23.93;17.53;;;8.50;99.90;;;;;;5064761;28;20189;-71
2023/04/16 00:12:48;;;;;;;26.33;18.60;;;8.50;99.90;;;;;;5068518;28;20752;-70
2023/04/16 00:15:14;;;;;;;26.53;17.17;;;8.50;99.90;;;;;;5073964;28;20179;-73
2023/04/16 00:17:40;;;;;;;27.87;17.07;;;8.50;99.90;;;;;;5056373;28;20534;-73
2023/04/16 00:20:07;;;;;;;23.53;16.70;;;8.50;99.90;;;;;;5060741;28;20402;-73
2023/04/16 00:22:33;;;;;;;21.43;15.30;;;8.60;99.90;;;;;;5055602;28;20386;-69
2023/04/16 00:24:59;;;;;;;23.60;17.37;;;8.60;99.90;;;;;;5054139;28;20950;-73
2023/04/16 00:27:25;;;;;;;25.83;17.30;;;8.60;99.90;;;;;;5054486;28;20535;-74
2023/04/16 00:29:51;;;;;;;21.77;16.50;;;8.60;99.90;;;;;;5065260;28;20190;-73
2023/04/16 00:32:17;;;;;;;24.53;16.00;;;8.60;99.90;;;;;;5053677;28;20563;-70
2023/04/16 00:34:43;;;;;;;23.00;16.80;;;8.60;99.90;;;;;;5056838;28;20175;-73
2023/04/16 00:37:09;;;;;;;27.33;17.07;;;8.60;99.90;;;;;;5069495;28;20388;-70
2023/04/16 00:39:35;;;;;;;18.70;15.10;;;8.60;99.90;;;;;;5071313;28;20626;-74
2023/04/16 00:42:00;;;;;;;22.70;16.10;;;8.60;99.90;;;;;;5052895;28;20624;-73
2023/04/16 00:44:26;;;;;;;24.33;17.03;;;8.60;99.90;;;;;;5053398;28;20421;-73
2023/04/16 00:46:52;;;;;;;24.73;18.07;;;8.60;99.90;;;;;;5054508;28;20175;-70
2023/04/16 00:49:18;;;;;;;28.30;16.30;;;8.60;99.90;;;;;;5054544;28;20187;-70
2023/04/16 00:51:44;;;;;;;22.10;16.87;;;8.50;99.90;;;;;;5053854;28;20403;-71
2023/04/16 00:54:10;;;;;;;19.33;16.03;;;8.60;99.90;;;;;;5054402;28;20491;-73
2023/04/16 00:56:36;;;;;;;24.70;16.97;;;8.60;99.90;;;;;;5054579;28;20409;-70
2023/04/16 00:59:02;;;;;;;23.57;16.23;;;8.60;99.90;;;;;;5055980;28;20441;-70
2023/04/16 01:01:28;;;;;;;21.20;16.07;;;8.60;99.90;;;;;;5053533;28;20926;-74
2023/04/16 01:03:54;;;;;;;21.23;16.47;;;8.60;99.90;;;;;;5054340;28;20443;-70
2023/04/16 01:06:20;;;;;;;26.43;17.23;;;8.60;99.90;;;;;;5053447;28;20175;-70
2023/04/16 01:08:47;;;;;;;20.17;15.87;;;8.60;99.90;;;;;;5072137;28;20404;-69
2023/04/16 01:11:13;;;;;;;23.10;17.07;;;8.60;99.90;;;;;;5053286;28;20310;-73
2023/04/16 01:13:39;;;;;;;24.93;16.50;;;8.60;99.90;;;;;;5061837;28;20463;-74
2023/04/16 01:16:10;;;;;;;21.00;16.40;;;8.60;99.90;;;;;;5054893;28;20408;-74
2023/04/16 01:18:36;;;;;;;28.07;16.40;;;8.60;99.90;;;;;;5054224;28;20455;-70
2023/04/16 01:21:03;;;;;;;23.40;16.00;;;8.60;99.90;;;;;;5052622;28;20481;-73
2023/04/16 01:23:29;;;;;;;20.37;16.73;;;8.60;99.90;;;;;;5059593;28;20421;-73
2023/04/16 01:25:55;;;;;;;26.97;17.53;;;8.70;99.90;;;;;;5055360;28;20430;-73
2023/04/16 01:28:21;;;;;;;24.63;16.50;;;8.70;99.90;;;;;;5062687;28;20914;-70
2023/04/16 01:30:47;;;;;;;20.57;15.10;;;8.70;99.90;;;;;;5052209;28;20433;-70
2023/04/16 01:33:14;;;;;;;20.37;15.03;;;8.70;99.90;;;;;;5053892;28;20458;-70
2023/04/16 01:35:40;;;;;;;22.30;16.73;;;8.70;99.90;;;;;;5054250;28;20519;-69
2023/04/16 01:38:07;;;;;;;22.40;15.67;;;8.70;99.90;;;;;;5055043;28;20953;-73
2023/04/16 01:40:34;;;;;;;20.47;16.00;;;8.70;99.90;;;;;;5053093;28;20431;-69
2023/04/16 01:43:00;;;;;;;22.83;16.17;;;8.60;99.90;;;;;;5056287;28;20461;-73
2023/04/16 01:45:25;;;;;;;26.53;15.90;;;8.60;99.90;;;;;;5054104;28;20419;-70
2023/04/16 01:47:51;;;;;;;25.50;16.63;;;8.60;99.90;;;;;;5055568;28;20184;-73
2023/04/16 01:50:18;;;;;;;21.10;15.40;;;8.60;99.90;;;;;;5073141;28;20170;-70
2023/04/16 01:52:44;;;;;;;22.57;15.63;;;8.70;99.90;;;;;;5063604;28;20208;-69
2023/04/16 01:55:10;;;;;;;23.60;16.73;;;8.70;99.90;;;;;;5053336;28;20431;-70
2023/04/16 01:57:36;;;;;;;23.00;16.67;;;8.70;99.90;;;;;;5052003;28;20382;-69
2023/04/16 02:00:03;;;;;;;20.03;15.63;;;8.80;99.90;;;;;;5051831;28;20416;-73
2023/04/16 02:02:29;;;;;;;23.13;15.03;;;8.80;99.90;;;;;;5060278;28;20191;-69
2023/04/16 02:04:58;;;;;;;26.30;17.50;;;8.80;99.90;;;;;;5067554;28;20406;-73
2023/04/16 02:07:24;;;;;;;26.93;16.27;;;8.80;99.90;;;;;;5064356;28;20168;-70
2023/04/16 02:09:50;;;;;;;22.47;16.53;;;8.90;99.90;;;;;;5053162;28;20400;-70
2023/04/16 02:12:16;;;;;;;24.20;16.40;;;8.90;99.90;;;;;;5067889;28;20473;-72
2023/04/16 02:14:42;;;;;;;27.83;17.20;;;8.90;99.90;;;;;;5072667;28;20194;-74
2023/04/16 02:17:08;;;;;;;28.77;17.77;;;8.90;99.90;;;;;;5063985;28;20425;-73
2023/04/16 02:19:34;;;;;;;21.33;15.57;;;8.90;99.90;;;;;;5072856;28;20435;-70
2023/04/16 02:22:00;;;;;;;26.10;17.83;;;8.90;99.90;;;;;;5052855;28;20826;-70
2023/04/16 02:24:26;;;;;;;24.90;17.00;;;8.90;99.90;;;;;;5052850;28;20438;-73
2023/04/16 02:26:52;;;;;;;23.10;16.53;;;8.90;99.90;;;;;;5052941;28;20429;-70
2023/04/16 02:29:18;;;;;;;24.80;17.70;;;8.90;99.90;;;;;;5051947;28;20438;-74
2023/04/16 02:31:45;;;;;;;27.43;16.30;;;8.90;99.90;;;;;;5051661;28;20397;-71
2023/04/16 02:34:11;;;;;;;24.70;16.90;;;8.90;99.90;;;;;;5070792;28;20469;-73
2023/04/16 02:36:37;;;;;;;29.07;18.30;;;8.90;99.90;;;;;;5052776;28;20522;-73
2023/04/16 02:39:03;;;;;;;22.50;16.53;;;8.90;99.90;;;;;;5072566;28;20918;-73
2023/04/16 02:41:29;;;;;;;25.13;17.07;;;8.90;99.90;;;;;;5070146;28;20508;-74
2023/04/16 02:43:55;;;;;;;21.67;17.43;;;8.90;99.90;;;;;;5058058;28;20512;-70
2023/04/16 02:46:21;;;;;;;22.23;17.97;;;8.90;99.90;;;;;;5060071;28;20428;-71
2023/04/16 02:48:47;;;;;;;28.23;18.03;;;8.80;99.90;;;;;;5056210;28;20400;-72
2023/04/16 02:51:12;;;;;;;23.70;17.43;;;8.90;99.90;;;;;;5065993;28;20682;-69
2023/04/16 02:53:38;;;;;;;21.60;15.30;;;8.90;99.90;;;;;;5070936;28;20214;-73
2023/04/16 02:56:05;;;;;;;21.60;16.97;;;8.90;99.90;;;;;;5055715;28;20176;-70
2023/04/16 02:58:30;;;;;;;29.80;16.77;;;8.90;99.90;;;;;;5052303;28;20221;-69
2023/04/16 03:00:56;;;;;;;23.63;16.60;;;8.90;99.90;;;;;;5066206;28;20434;-70
2023/04/16 03:03:22;;;;;;;19.90;16.20;;;8.90;99.90;;;;;;5052230;28;20200;-70
2023/04/16 03:05:48;;;;;;;24.80;17.17;;;8.80;99.90;;;;;;5052462;28;20180;-70
2023/04/16 03:08:13;;;;;;;25.70;16.27;;;8.90;99.90;;;;;;5063704;28;20190;-73
2023/04/16 03:10:40;;;;;;;24.63;15.97;;;8.90;99.90;;;;;;5066709;28;20259;-73
2023/04/16 03:13:06;;;;;;;24.43;17.50;;;8.90;99.90;;;;;;5051921;28;20199;-71
2023/04/16 03:15:32;;;;;;;21.23;15.93;;;8.90;99.90;;;;;;5052236;28;20400;-70
2023/04/16 03:17:58;;;;;;;24.13;15.90;;;8.90;99.90;;;;;;5061546;28;20795;-70
2023/04/16 03:20:24;;;;;;;21.00;14.37;;;8.90;99.90;;;;;;5070703;28;20385;-70
2023/04/16 03:22:53;;;;;;;21.63;16.33;;;8.90;99.90;;;;;;5055104;28;20410;-74
2023/04/16 03:25:20;;;;;;;20.03;14.77;;;9.00;99.90;;;;;;5052585;28;20386;-74
2023/04/16 03:27:45;;;;;;;19.30;14.60;;;9.00;99.90;;;;;;5052800;28;21000;-71
2023/04/16 03:30:12;;;;;;;19.73;14.80;;;9.00;99.90;;;;;;5066846;28;20427;-70
2023/04/16 03:32:38;;;;;;;22.20;15.03;;;8.90;99.90;;;;;;5051926;28;20237;-74
2023/04/16 03:35:05;;;;;;;20.83;14.73;;;8.90;99.90;;;;;;5052590;28;20887;-73
2023/04/16 03:37:31;;;;;;;21.60;16.40;;;9.00;99.90;;;;;;5056095;28;20518;-74
2023/04/16 03:39:57;;;;;;;22.87;15.63;;;9.00;99.90;;;;;;5055759;28;20841;-70
2023/04/16 03:42:23;;;;;;;23.13;15.60;;;9.00;99.90;;;;;;5064459;28;20198;-71
2023/04/16 03:44:48;;;;;;;27.00;16.13;;;9.00;99.90;;;;;;5066932;28;20174;-70
2023/04/16 03:47:14;;;;;;;26.33;16.40;;;9.00;99.90;;;;;;5057936;28;20181;-70
2023/04/16 03:49:40;;;;;;;21.60;15.57;;;9.00;99.90;;;;;;5074943;28;20181;-73
2023/04/16 03:52:05;;;;;;;21.50;15.97;;;9.00;99.90;;;;;;5057348;28;20205;-70
2023/04/16 03:54:31;;;;;;;25.10;15.77;;;9.00;99.90;;;;;;5056113;28;20234;-73
2023/04/16 03:56:57;;;;;;;25.43;15.87;;;9.00;99.90;;;;;;5058093;28;20607;-70
2023/04/16 03:59:22;;;;;;;22.97;15.93;;;9.00;99.90;;;;;;5055289;28;20214;-73
2023/04/16 04:01:48;;;;;;;21.23;15.10;;;9.00;99.90;;;;;;5068155;28;20192;-70
2023/04/16 04:04:14;;;;;;;22.70;16.50;;;9.00;99.90;;;;;;5073885;28;20197;-73
2023/04/16 04:06:40;;;;;;;22.80;14.60;;;9.00;99.90;;;;;;5069724;28;20180;-73
2023/04/16 04:09:06;;;;;;;20.87;16.13;;;9.00;99.90;;;;;;5075973;28;20234;-70
2023/04/16 04:11:32;;;;;;;25.90;15.40;;;9.00;99.90;;;;;;5069802;28;20979;-70
2023/04/16 04:13:58;;;;;;;21.47;15.60;;;9.00;99.90;;;;;;5069169;28;20427;-70
2023/04/16 04:16:23;;;;;;;22.30;15.00;;;9.00;99.90;;;;;;5075728;28;20509;-73
2023/04/16 04:18:49;;;;;;;20.87;15.20;;;9.00;99.90;;;;;;5063574;28;20764;-70
2023/04/16 04:21:15;;;;;;;18.60;15.77;;;9.00;99.90;;;;;;5054390;28;20707;-73
2023/04/16 04:23:41;;;;;;;20.90;14.73;;;8.90;99.90;;;;;;5054348;28;20579;-71
2023/04/16 04:26:07;;;;;;;20.10;15.60;;;9.00;99.90;;;;;;5054809;28;20435;-74
2023/04/16 04:28:34;;;;;;;22.57;15.63;;;9.00;99.90;;;;;;5054698;28;20181;-70
2023/04/16 04:31:00;;;;;;;19.40;14.67;;;9.00;99.90;;;;;;5056983;28;20400;-70
2023/04/16 04:33:27;;;;;;;21.37;15.13;;;9.00;99.90;;;;;;5057886;28;20774;-69
2023/04/16 04:35:53;;;;;;;19.40;14.33;;;9.00;99.90;;;;;;5055306;28;20398;-70
2023/04/16 04:38:21;;;;;;;21.23;14.57;;;9.00;99.90;;;;;;5059731;28;20476;-70
2023/04/16 04:40:52;;;;;;;23.03;15.03;;;9.00;99.90;;;;;;5065811;28;20403;-70
2023/04/16 04:43:21;;;;;;;18.20;14.20;;;9.00;99.90;;;;;;5057017;28;20511;-73
2023/04/16 04:45:47;;;;;;;19.50;15.50;;;9.10;99.90;;;;;;5074900;28;20397;-73
2023/04/16 04:48:14;;;;;;;19.80;15.20;;;9.10;99.90;;;;;;5073511;28;20780;-73
2023/04/16 04:50:40;;;;;;;23.93;14.63;;;9.00;99.90;;;;;;5073387;28;20426;-74
2023/04/16 04:53:09;;;;;;;18.23;14.70;;;9.10;99.90;;;;;;5070400;28;20449;-70
2023/04/16 04:55:40;;;;;;;19.07;14.50;;;9.10;99.90;;;;;;5071275;28;20534;-73
2023/04/16 04:58:06;;;;;;;19.70;14.40;;;9.10;99.90;;;;;;5064703;28;20417;-73
2023/04/16 05:00:33;;;;;;;21.73;14.77;;;9.10;99.90;;;;;;5071786;28;20397;-71
2023/04/16 05:03:04;;;;;;;17.20;14.17;;;9.10;99.90;;;;;;5074895;28;20467;-70
2023/04/16 05:05:30;;;;;;;17.07;12.80;;;9.20;99.90;;;;;;5074155;28;20900;-72
2023/04/16 05:07:55;;;;;;;19.77;14.23;;;9.10;99.90;;;;;;5056845;28;20427;-73
2023/04/16 05:10:21;;;;;;;23.70;13.93;;;9.10;99.90;;;;;;5056301;28;20415;-70
2023/04/16 05:12:47;;;;;;;19.70;14.43;;;9.10;99.90;;;;;;5065319;28;20201;-74
2023/04/16 05:15:14;;;;;;;21.30;14.97;;;9.10;99.90;;;;;;5062417;28;20225;-70
2023/04/16 05:17:40;;;;;;;23.10;13.87;;;9.10;99.90;;;;;;5054065;28;20367;-69
2023/04/16 05:20:07;;;;;;;19.80;13.63;;;9.10;99.90;;;;;;5052267;28;20908;-71
2023/04/16 05:22:33;;;;;;;20.17;14.90;;;9.10;99.90;;;;;;5054149;28;20201;-73
2023/04/16 05:24:58;;;;;;;15.77;14.10;;;9.10;99.90;;;;;;5057136;28;20431;-70
2023/04/16 05:27:24;;;;;;;26.37;13.90;;;9.10;99.90;;;;;;5073624;28;20175;-74
2023/04/16 05:29:50;;;;;;;17.40;13.80;;;9.10;99.90;;;;;;5055776;28;20721;-73
2023/04/16 05:32:15;;;;;;;18.03;14.23;;;9.10;99.90;;;;;;5053585;28;20212;-74
2023/04/16 05:34:41;;;;;;;24.60;13.50;;;9.10;99.90;;;;;;5053435;28;20293;-73
2023/04/16 05:37:07;;;;;;;25.70;15.27;;;9.10;99.90;;;;;;5053098;28;20532;-73
2023/04/16 05:39:32;;;;;;;19.70;14.20;;;9.10;99.90;;;;;;5056400;28;20173;-74
2023/04/16 05:41:58;;;;;;;18.33;14.43;;;9.20;99.90;;;;;;5052822;28;20213;-70
2023/04/16 05:44:24;;;;;;;17.70;14.27;;;9.10;99.90;;;;;;5054053;28;20178;-72
2023/04/16 05:46:50;;;;;;;16.47;13.57;;;9.10;99.90;;;;;;5056556;28;20204;-74
2023/04/16 05:49:17;;;;;;;19.10;14.17;;;9.20;99.90;;;;;;5064545;28;20470;-72
2023/04/16 05:51:43;;;;;;;22.17;13.13;;;9.20;99.90;;;;;;5059231;28;20411;-72
2023/04/16 05:54:09;;;;;;;21.43;14.60;;;9.20;99.90;;;;;;5064734;28;20518;-73
2023/04/16 05:56:35;;;;;;;20.33;14.50;;;9.30;99.90;;;;;;5053258;28;20488;-72
2023/04/16 05:59:01;;;;;;;23.93;14.00;;;9.30;99.90;;;;;;5052709;28;20989;-72
2023/04/16 06:01:27;;;;;;;21.30;14.23;;;9.30;99.90;;;;;;5054826;28;20181;-71
2023/04/16 06:03:52;;;;;;;19.57;13.57;;;9.30;99.90;;;;;;5052817;28;20191;-71
2023/04/16 06:06:18;;;;;;;16.80;14.10;;;9.30;99.90;;;;;;5056241;28;20212;-74
2023/04/16 06:08:44;;;;;;;17.70;14.20;;;9.40;99.90;;;;;;5053788;28;20174;-71
2023/04/16 06:11:10;;;;;;;18.10;14.17;;;9.40;99.90;;;;;;5056321;28;20262;-71
2023/04/16 06:13:36;;;;;;;21.63;16.80;;;9.40;99.90;;;;;;5064312;28;20213;-72
2023/04/16 06:16:02;;;;;;;17.97;14.70;;;9.40;99.90;;;;;;5053545;28;20175;-71
2023/04/16 06:18:27;;;;;;;19.00;13.40;;;9.30;99.90;;;;;;5052050;28;20852;-73
2023/04/16 06:20:53;;;;;;;19.23;15.13;;;9.30;99.90;;;;;;5052493;28;20168;-74
2023/04/16 06:23:20;;;;;;;21.57;13.23;;;9.30;99.90;;;;;;5058510;28;20188;-74
2023/04/16 06:25:45;;;;;;;21.37;15.50;;;9.40;99.90;;;;;;5052879;28;20433;-73
2023/04/16 06:28:11;;;;;;;20.07;14.27;;;9.40;99.90;;;;;;5053577;28;20377;-75
2023/04/16 06:30:38;;;;;;;16.87;13.00;;;9.40;99.90;;;;;;5051523;28;20174;-73
2023/04/16 06:33:04;;;;;;;16.57;13.27;;;9.30;99.90;;;;;;5052105;28;20210;-73
2023/04/16 06:35:30;;;;;;;16.40;13.03;;;9.40;99.90;;;;;;5053025;28;20397;-74
2023/04/16 06:37:56;;;;;;;18.47;13.60;;;9.40;99.90;;;;;;5062890;28;20422;-72
2023/04/16 06:40:21;;;;;;;18.40;14.50;;;9.40;99.90;;;;;;5069617;28;20182;-72
2023/04/16 06:42:47;;;;;;;16.30;14.20;;;9.50;99.90;;;;;;5052583;28;20623;-73
2023/04/16 06:45:13;;;;;;;18.80;14.03;;;9.50;99.90;;;;;;5073180;28;20625;-72
2023/04/16 06:47:39;;;;;;;20.23;13.70;;;9.50;99.90;;;;;;5063393;28;20176;-74
2023/04/16 06:50:06;;;;;;;19.43;13.80;;;9.50;99.90;;;;;;5068461;28;20168;-73
2023/04/16 06:52:31;;;;;;;20.57;14.50;;;9.50;99.90;;;;;;5051981;28;20463;-74
2023/04/16 06:54:57;;;;;;;19.57;13.37;;;9.50;99.90;;;;;;5055521;28;20462;-74
2023/04/16 06:57:23;;;;;;;23.37;14.73;;;9.50;99.90;;;;;;5051698;28;21067;-71
2023/04/16 06:59:49;;;;;;;18.23;13.80;;;9.50;99.90;;;;;;5051264;28;20418;-74
2023/04/16 07:02:15;;;;;;;22.70;15.70;;;9.40;99.90;;;;;;5051455;28;20321;-74
2023/04/16 07:04:41;;;;;;;24.20;15.90;;;9.30;99.90;;;;;;5052857;28;20171;-72
2023/04/16 07:07:08;;;;;;;22.53;15.27;;;9.30;99.90;;;;;;5059532;28;20482;-72
2023/04/16 07:09:34;;;;;;;18.23;13.87;;;9.40;99.90;;;;;;5073073;28;20249;-73
2023/04/16 07:12:00;;;;;;;17.33;14.87;;;9.40;99.90;;;;;;5074347;28;20457;-70
2023/04/16 07:14:25;;;;;;;17.97;12.83;;;9.40;99.90;;;;;;5057874;28;20433;-70
2023/04/16 07:16:51;;;;;;;24.70;16.33;;;9.40;99.90;;;;;;5057010;28;20692;-70
2023/04/16 07:19:17;;;;;;;19.10;14.47;;;9.40;99.90;;;;;;5056744;28;20199;-73
2023/04/16 07:21:43;;;;;;;19.10;15.13;;;9.40;99.90;;;;;;5054762;28;20191;-73
2023/04/16 07:24:10;;;;;;;17.33;13.33;;;9.40;99.90;;;;;;5056795;28;20253;-73
2023/04/16 07:26:36;;;;;;;24.87;14.53;;;9.30;99.90;;;;;;5056753;28;20163;-70
2023/04/16 07:29:02;;;;;;;22.40;15.77;;;9.40;99.90;;;;;;5055720;28;20453;-73
2023/04/16 07:31:28;;;;;;;21.73;16.10;;;9.40;99.90;;;;;;5055284;28;20884;-71
2023/04/16 07:33:54;;;;;;;21.53;15.47;;;9.30;99.90;;;;;;5056460;28;20191;-70
2023/04/16 07:36:20;;;;;;;21.53;15.17;;;9.30;99.90;;;;;;5056699;28;20934;-73
2023/04/16 07:38:45;;;;;;;21.77;14.07;;;9.30;99.90;;;;;;5056508;28;20213;-73
2023/04/16 07:41:12;;;;;;;18.77;14.50;;;9.30;99.90;;;;;;5054922;28;20378;-73
2023/04/16 07:43:38;;;;;;;22.50;14.37;;;9.20;99.90;;;;;;5056402;28;20209;-70
2023/04/16 07:46:03;;;;;;;18.60;13.80;;;9.30;99.90;;;;;;5055174;28;20393;-73
2023/04/16 07:48:29;;;;;;;20.00;14.60;;;9.20;99.90;;;;;;5055343;28;20169;-71
2023/04/16 07:50:55;;;;;;;20.23;15.00;;;9.20;99.90;;;;;;5055127;28;20639;-70
2023/04/16 07:53:21;;;;;;;19.47;14.90;;;9.30;99.90;;;;;;5055949;28;20213;-70
2023/04/16 07:55:47;;;;;;;16.90;15.10;;;9.30;99.90;;;;;;5056133;28;20775;-71
2023/04/16 07:58:12;;;;;;;18.10;12.93;;;9.30;99.90;;;;;;5055755;28;20181;-71
2023/04/16 08:00:38;;;;;;;22.17;14.67;;;9.40;99.90;;;;;;5054847;28;20183;-74
2023/04/16 08:03:04;;;;;;;21.13;13.63;;;9.40;99.90;;;;;;5055908;28;20199;-72
2023/04/16 08:05:30;;;;;;;18.20;13.90;;;9.40;99.90;;;;;;5055894;28;20428;-73
2023/04/16 08:07:55;;;;;;;26.03;16.37;;;9.40;99.90;;;;;;5053815;28;20180;-71
2023/04/16 08:10:21;;;;;;;23.27;14.00;;;9.40;99.90;;;;;;5068547;28;20185;-70
2023/04/16 08:12:47;;;;;;;16.43;13.83;;;9.40;99.90;;;;;;5055703;28;20183;-74
2023/04/16 08:15:13;;;;;;;17.53;14.00;;;9.40;99.90;;;;;;5054809;28;20591;-73
2023/04/16 08:17:38;;;;;;;20.50;15.07;;;9.30;99.90;;;;;;5055658;28;20216;-70
2023/04/16 08:20:05;;;;;;;19.93;13.10;;;9.40;99.90;;;;;;5055159;28;20155;-72
2023/04/16 08:22:32;;;;;;;22.80;15.37;;;9.30;99.90;;;;;;5054863;28;20653;-73
2023/04/16 08:24:58;;;;;;;16.40;12.57;;;9.30;99.90;;;;;;5055163;28;20432;-73
2023/04/16 08:27:23;;;;;;;15.60;13.33;;;9.30;99.90;;;;;;5054563;28;20409;-73
2023/04/16 08:29:49;;;;;;;25.30;16.33;;;9.30;99.90;;;;;;5055300;28;20464;-71
2023/04/16 08:32:15;;;;;;;17.53;14.17;;;9.40;99.90;;;;;;5054755;28;20247;-73
2023/04/16 08:34:41;;;;;;;21.67;14.63;;;9.40;99.90;;;;;;5055390;28;21148;-70
2023/04/16 08:37:07;;;;;;;18.13;13.90;;;9.40;99.90;;;;;;5054722;28;20193;-71
2023/04/16 08:39:34;;;;;;;17.60;14.33;;;9.30;99.90;;;;;;5055412;28;20185;-71
2023/04/16 08:42:03;;;;;;;19.23;13.50;;;9.30;99.90;;;;;;5054271;28;20196;-70
2023/04/16 08:44:36;;;;;;;20.57;13.40;;;9.40;99.90;;;;;;5054342;28;20409;-73
2023/04/16 08:47:04;;;;;;;16.00;13.20;;;9.40;99.90;;;;;;5055338;28;20406;-73
2023/04/16 08:49:34;;;;;;;19.23;13.20;;;9.40;99.90;;;;;;5055213;28;20892;-73
2023/04/16 08:52:04;;;;;;;13.97;12.43;;;9.40;99.90;;;;;;5053420;28;20403;-73
2023/04/16 08:54:33;;;;;;;19.03;12.17;;;9.40;99.90;;;;;;5054968;28;20439;-73
2023/04/16 08:57:03;;;;;;;20.97;13.43;;;9.40;99.90;;;;;;5055084;28;20487;-70
2023/04/16 08:59:29;;;;;;;19.30;13.60;;;9.40;99.90;;;;;;5054961;28;20378;-73
2023/04/16 09:01:57;;;;;;;19.60;15.07;;;9.40;99.90;;;;;;5053725;28;20448;-70
2023/04/16 09:04:27;;;;;;;18.70;13.60;;;9.40;99.90;;;;;;5054327;28;20404;-72
2023/04/16 09:06:54;;;;;;;18.37;13.40;;;9.50;99.90;;;;;;5052933;28;20798;-74
2023/04/16 09:09:21;;;;;;;18.40;13.70;;;9.50;99.90;;;;;;5054813;28;20401;-71
2023/04/16 09:11:51;;;;;;;20.73;13.80;;;9.50;99.90;;;;;;5053074;28;20833;-71
2023/04/16 09:14:17;;;;;;;20.80;14.20;;;9.50;99.90;;;;;;5054699;28;20431;-73
2023/04/16 09:16:45;;;;;;;18.20;14.27;;;9.50;99.90;;;;;;5053646;28;20441;-73
2023/04/16 09:19:10;;;;;;;22.97;14.40;;;9.50;99.90;;;;;;5054596;28;20382;-70
2023/04/16 09:21:37;;;;;;;18.60;14.17;;;9.50;99.90;;;;;;5052755;28;20380;-74
2023/04/16 09:24:03;;;;;;;17.40;13.80;;;9.50;99.90;;;;;;5054450;28;20527;-74
2023/04/16 09:26:30;;;;;;;16.63;13.20;;;9.60;99.90;;;;;;5053831;28;20382;-73
2023/04/16 09:28:55;;;;;;;19.03;12.80;;;9.60;99.90;;;;;;5054530;28;20456;-74
2023/04/16 09:31:21;;;;;;;17.23;14.20;;;9.70;99.90;;;;;;5053511;28;20929;-73
2023/04/16 09:34:07;;;;;;;18.80;13.97;;;9.70;99.90;;;;;;5053155;28;20202;-73
2023/04/16 09:36:34;;;;;;;20.33;13.30;;;9.70;99.90;;;;;;5054248;28;20636;-73
2023/04/16 09:39:00;;;;;;;19.47;13.20;;;9.70;99.90;;;;;;5053528;28;20895;-73
2023/04/16 09:41:28;;;;;;;15.30;13.10;;;9.70;99.90;;;;;;5052457;28;20489;-70
2023/04/16 09:44:03;;;;;;;18.13;14.80;;;9.70;99.90;;;;;;5054102;28;20404;-70
2023/04/16 09:46:39;;;;;;;19.60;13.37;;;9.70;99.90;;;;;;5053958;28;20411;-70
2023/04/16 09:49:09;;;;;;;18.20;13.00;;;9.80;99.90;;;;;;5053954;28;20737;-70
2023/04/16 09:51:40;;;;;;;18.73;13.30;;;9.80;99.90;;;;;;5051816;28;20386;-71
2023/04/16 09:54:06;;;;;;;17.37;12.90;;;9.80;99.90;;;;;;5052732;28;20464;-73
2023/04/16 09:56:32;;;;;;;19.27;13.20;;;9.80;99.90;;;;;;5053791;28;20364;-71
2023/04/16 09:59:01;;;;;;;19.83;13.43;;;9.80;99.90;;;;;;5052989;28;20919;-71
2023/04/16 10:01:30;;;;;;;17.33;12.67;;;9.90;99.90;;;;;;5052864;28;20521;-71
2023/04/16 10:03:57;;;;;;;17.17;12.60;;;9.90;99.90;;;;;;5053493;28;20384;-73
2023/04/16 10:06:26;;;;;;;23.43;14.90;;;9.90;99.90;;;;;;5053588;28;20766;-70
2023/04/16 10:08:55;;;;;;;20.93;12.07;;;9.90;99.90;;;;;;5062045;28;20402;-73
2023/04/16 10:11:22;;;;;;;17.33;12.17;;;9.80;99.90;;;;;;5055438;28;20396;-71
2023/04/16 10:13:48;;;;;;;16.97;12.53;;;9.80;99.90;;;;;;5053111;28;20822;-70
2023/04/16 10:16:14;;;;;;;20.23;13.00;;;9.80;99.90;;;;;;5052642;28;20843;-70
2023/04/16 10:18:42;;;;;;;16.60;13.10;;;9.80;99.90;;;;;;5057645;28;20490;-73
2023/04/16 10:21:11;;;;;;;17.53;13.47;;;9.80;99.90;;;;;;5051544;28;20171;-74
2023/04/16 10:23:41;;;;;;;19.07;12.37;;;9.80;99.90;;;;;;5053639;28;20964;-71
2023/04/16 10:26:08;;;;;;;19.30;12.57;;;9.80;99.90;;;;;;5068728;28;20880;-74
2023/04/16 10:28:36;;;;;;;18.03;13.20;;;9.70;99.90;;;;;;5064743;28;20420;-70
2023/04/16 10:31:06;;;;;;;18.80;13.30;;;9.70;99.90;;;;;;5052152;28;20406;-71
2023/04/16 10:33:38;;;;;;;15.80;13.30;;;9.60;99.90;;;;;;5052511;28;20451;-73
2023/04/16 10:36:11;;;;;;;17.87;12.13;;;9.60;99.90;;;;;;5060193;28;20414;-73
2023/04/16 10:38:43;;;;;;;18.63;13.40;;;9.60;99.90;;;;;;5056647;28;20421;-72
2023/04/16 10:41:09;;;;;;;17.33;13.33;;;9.60;99.90;;;;;;5066619;28;20401;-72
2023/04/16 10:43:50;;;;;;;19.03;14.73;;;9.50;99.90;;;;;;5065263;28;20429;-76
2023/04/16 10:46:30;;;;;;;18.33;13.90;;;9.40;99.90;;;;;;5058009;28;20512;-74
2023/04/16 10:49:00;;;;;;;21.47;15.10;;;9.40;99.90;;;;;;5052094;28;20403;-70
2023/04/16 10:51:34;;;;;;;22.30;14.20;;;9.40;1.00;;;;;;5065495;28;20400;-71
2023/04/16 10:54:20;;;;;;;18.03;14.27;;;9.40;1.00;;;;;;5052349;28;20998;-71
2023/04/16 10:56:49;;;;;;;23.07;15.20;;;9.50;1.00;;;;;;5055973;28;20471;-70
2023/04/16 10:59:20;;;;;;;20.13;14.73;;;9.50;1.00;;;;;;5053146;28;20387;-73
2023/04/16 11:01:50;;;;;;;17.93;14.57;;;9.40;1.00;;;;;;5052415;28;20465;-70
2023/04/16 11:04:19;;;;;;;19.70;13.93;;;9.40;1.00;;;;;;5051518;28;20407;-71
2023/04/16 11:07:13;;;;;;;21.50;15.07;;;9.40;1.00;;;;;;5052768;28;20379;-75
2023/04/16 11:10:04;;;;;;;20.70;14.67;;;9.30;1.00;;;;;;5057465;28;20419;-73
2023/04/16 11:12:36;;;;;;;23.13;15.50;;;9.30;1.00;;;;;;5062613;28;20427;-72
2023/04/16 11:15:06;;;;;;;25.07;16.53;;;9.20;1.00;;;;;;5055750;28;20456;-71
2023/04/16 11:17:51;;;;;;;16.70;14.03;;;9.20;1.00;;;;;;5051904;28;20407;-74
2023/04/16 11:20:22;;;;;;;20.30;14.43;;;9.30;1.00;;;;;;5051781;28;20418;-71
2023/04/16 11:22:52;;;;;;;22.13;16.67;;;9.40;1.00;;;;;;5052356;28;20469;-70
2023/04/16 11:25:25;;;;;;;21.80;14.70;;;9.40;1.00;;;;;;5062770;28;20407;-70
2023/04/16 11:27:52;;;;;;;21.20;15.73;;;9.40;1.00;;;;;;5061641;28;20947;-73
2023/04/16 11:30:27;;;;;;;21.13;14.53;;;9.40;1.00;;;;;;5060485;28;21069;-71
2023/04/16 11:32:53;;;;;;;17.20;13.10;;;9.40;1.00;;;;;;5056868;28;20480;-73
2023/04/16 11:35:19;;;;;;;19.53;15.30;;;9.40;1.00;;;;;;5060360;28;20393;-74
2023/04/16 11:37:47;;;;;;;17.97;14.67;;;9.50;1.00;;;;;;5053179;28;20528;-70
2023/04/16 11:40:13;;;;;;;24.27;16.00;;;9.60;1.00;;;;;;5057190;28;20394;-74
2023/04/16 11:42:41;;;;;;;22.30;16.00;;;9.70;1.00;;;;;;5061865;28;20481;-73
2023/04/16 11:45:08;;;;;;;19.07;14.40;;;9.70;1.00;;;;;;5052574;28;20399;-73
2023/04/16 11:47:49;;;;;;;21.40;14.70;;;9.70;1.00;;;;;;5070361;28;20477;-73
2023/04/16 11:50:19;;;;;;;21.23;15.30;;;9.70;1.00;;;;;;5060704;28;20432;-70
2023/04/16 11:52:46;;;;;;;18.60;15.43;;;9.70;1.00;;;;;;5066706;28;20845;-73
2023/04/16 11:55:12;;;;;;;25.07;15.20;;;9.70;1.00;;;;;;5069720;28;20806;-73
2023/04/16 11:57:38;;;;;;;15.90;14.23;;;9.80;1.00;;;;;;5070154;28;20414;-73
2023/04/16 12:00:05;;;;;;;17.20;14.37;;;9.90;1.00;;;;;;5067695;28;20473;-72
2023/04/16 12:02:37;;;;;;;18.97;13.93;;;9.90;1.00;;;;;;5054999;28;20194;-73
2023/04/16 12:05:05;;;;;;;20.60;14.03;;;9.90;1.00;;;;;;5061356;28;20476;-71
2023/04/16 12:07:31;;;;;;;20.97;15.30;;;10.00;1.00;;;;;;5073849;28;20786;-73
2023/04/16 12:10:07;;;;;;;18.00;13.40;;;10.10;1.00;;;;;;5060719;28;20471;-73
2023/04/16 12:12:33;;;;;;;19.53;15.50;;;10.10;1.00;;;;;;5055824;28;20420;-70
2023/04/16 12:15:03;;;;;;;22.67;15.30;;;10.10;1.00;;;;;;5057940;28;20494;-70
2023/04/16 12:17:31;;;;;;;22.90;13.97;;;10.20;1.00;;;;;;5055204;28;20405;-72
2023/04/16 12:19:59;;;;;;;21.53;14.20;;;10.20;1.00;;;;;;5066029;28;20526;-70
2023/04/16 12:22:30;;;;;;;18.50;13.53;;;10.30;1.00;;;;;;5053615;28;20433;-73
2023/04/16 12:25:03;;;;;;;17.73;14.00;;;10.20;1.00;;;;;;5073074;28;20444;-73
2023/04/16 12:27:51;;;;;;;18.70;13.23;;;10.30;1.00;;;;;;5060671;28;20922;-69
2023/04/16 12:30:19;;;;;;;18.00;14.10;;;10.50;1.00;;;;;;5067176;28;20812;-70
2023/04/16 12:32:50;;;;;;;18.20;13.43;;;10.40;1.00;;;;;;5066094;28;20469;-73
2023/04/16 12:35:30;;;;;;;16.10;12.93;;;10.40;1.00;;;;;;5056484;28;20433;-70
2023/04/16 12:37:56;;;;;;;21.87;13.87;;;10.50;1.00;;;;;;5054591;28;20419;-69